createdAt,value
2023-04-20T00:01:57.030Z,97421.53
2023-04-20T00:04:23.736Z,97413.00
2023-04-20T00:06:51.830Z,97407.03
2023-04-20T00:09:19.194Z,97411.31
2023-04-20T00:11:45.952Z,97409.56
2023-04-20T00:14:12.490Z,97401.91
2023-04-20T00:16:39.094Z,97398.47
2023-04-20T00:19:07.230Z,97402.75
2023-04-20T00:21:34.276Z,97388.22
2023-04-20T00:24:07.213Z,97385.75
2023-04-20T00:26:34.094Z,97367.66
2023-04-20T00:29:00.692Z,97386.56
2023-04-20T00:31:27.263Z,97383.16
2023-04-20T00:33:53.877Z,97380.59
2023-04-20T00:36:20.649Z,97380.59
2023-04-20T00:38:47.231Z,97374.63
2023-04-20T00:41:13.835Z,97372.00
2023-04-20T00:43:50.431Z,97360.03
2023-04-20T00:46:16.940Z,97355.88
2023-04-20T00:48:43.552Z,97329.91
2023-04-20T00:51:10.107Z,97359.25
2023-04-20T00:53:36.682Z,97351.53
2023-04-20T00:56:03.316Z,97351.59
2023-04-20T00:58:30.165Z,97343.88
2023-04-20T01:00:56.969Z,97337.09
2023-04-20T01:03:23.688Z,97324.22
2023-04-20T01:05:50.398Z,97334.50
2023-04-20T01:08:16.944Z,97337.09
2023-04-20T01:10:43.489Z,97331.09
2023-04-20T01:13:10.061Z,97320.91
2023-04-20T01:15:36.704Z,97311.53
2023-04-20T01:18:03.603Z,97308.03
2023-04-20T01:20:30.444Z,97314.03
2023-04-20T01:22:57.002Z,97303.88
2023-04-20T01:25:23.605Z,97301.31
2023-04-20T01:27:50.169Z,97297.03
2023-04-20T01:30:17.293Z,97298.78
2023-04-20T01:32:43.932Z,97307.19
2023-04-20T01:35:10.893Z,97308.09
2023-04-20T01:37:38.180Z,97303.00
2023-04-20T01:40:06.407Z,97294.47
2023-04-20T01:42:33.001Z,97227.88
2023-04-20T01:44:59.492Z,97292.75
2023-04-20T01:47:26.029Z,97279.84
2023-04-20T01:49:52.625Z,97292.75
2023-04-20T01:52:19.133Z,97285.09
2023-04-20T01:54:45.782Z,97285.09
2023-04-20T01:57:12.371Z,97268.53
2023-04-20T01:59:38.964Z,97286.81
2023-04-20T02:02:05.624Z,97261.91
2023-04-20T02:04:32.229Z,97278.31
2023-04-20T02:06:58.737Z,97255.78
2023-04-20T02:09:25.512Z,97260.22
2023-04-20T02:11:52.057Z,97209.88
2023-04-20T02:14:18.571Z,97277.44
2023-04-20T02:16:45.627Z,97285.09
2023-04-20T02:19:12.211Z,97278.13
2023-04-20T02:21:38.794Z,97285.09
2023-04-20T02:24:06.367Z,97277.28
2023-04-20T02:26:32.934Z,97286.78
2023-04-20T02:28:59.543Z,97278.09
2023-04-20T02:31:26.167Z,97280.69
2023-04-20T02:33:53.025Z,97285.03
2023-04-20T02:36:19.555Z,97236.50
2023-04-20T02:38:46.274Z,97273.16
2023-04-20T02:41:12.812Z,97274.84
2023-04-20T02:43:39.628Z,97278.22
2023-04-20T02:46:06.207Z,97282.50
2023-04-20T02:48:32.804Z,97261.09
2023-04-20T02:50:59.341Z,97260.31
2023-04-20T02:53:25.931Z,97259.34
2023-04-20T02:55:52.533Z,97256.84
2023-04-20T02:58:19.056Z,97262.91
2023-04-20T03:00:45.926Z,97254.28
2023-04-20T03:03:12.714Z,97259.47
2023-04-20T03:05:39.309Z,97255.22
2023-04-20T03:08:07.088Z,97255.91
2023-04-20T03:10:33.806Z,97261.09
2023-04-20T03:13:00.328Z,97256.00
2023-04-20T03:15:26.932Z,97261.09
2023-04-20T03:17:53.574Z,97256.84
2023-04-20T03:20:20.136Z,97257.72
2023-04-20T03:22:46.997Z,97260.25
2023-04-20T03:25:13.544Z,97231.75
2023-04-20T03:27:40.040Z,97262.81
2023-04-20T03:30:08.494Z,97258.50
2023-04-20T03:32:35.048Z,97243.91
2023-04-20T03:35:02.041Z,97254.28
2023-04-20T03:37:28.654Z,97247.50
2023-04-20T03:39:55.155Z,97250.91
2023-04-20T03:42:21.686Z,97248.31
2023-04-20T03:44:48.288Z,97250.91
2023-04-20T03:47:15.049Z,97250.06
2023-04-20T03:49:41.587Z,97248.34
2023-04-20T03:52:08.094Z,97242.34
2023-04-20T03:54:34.664Z,97241.53
2023-04-20T03:57:02.184Z,97236.28
2023-04-20T03:59:28.701Z,97249.22
2023-04-20T04:01:55.375Z,97240.69
2023-04-20T04:04:23.662Z,97238.94
2023-04-20T04:06:50.432Z,97232.91
2023-04-20T04:09:17.135Z,97245.78
2023-04-20T04:11:43.842Z,97232.91
2023-04-20T04:14:10.416Z,97243.19
2023-04-20T04:16:36.981Z,97222.44
2023-04-20T04:19:03.830Z,97245.75
2023-04-20T04:21:30.783Z,97244.06
2023-04-20T04:23:57.611Z,97151.44
2023-04-20T04:26:24.865Z,97242.41
2023-04-20T04:28:51.776Z,97219.81
2023-04-20T04:31:19.493Z,97232.94
2023-04-20T04:33:46.458Z,97247.47
2023-04-20T04:36:15.316Z,97235.53
2023-04-20T04:38:44.570Z,97235.50
2023-04-20T04:41:14.375Z,97221.06
2023-04-20T04:43:41.337Z,97226.16
2023-04-20T04:46:11.422Z,97230.41
2023-04-20T04:48:38.092Z,97235.50
2023-04-20T04:51:05.021Z,97232.09
2023-04-20T04:53:31.547Z,97232.09
2023-04-20T04:55:58.093Z,97225.09
2023-04-20T04:58:25.074Z,97233.78
2023-04-20T05:00:51.759Z,97232.94
2023-04-20T05:03:18.592Z,97238.94
2023-04-20T05:05:45.502Z,97232.94
2023-04-20T05:08:12.430Z,97243.16
2023-04-20T05:10:39.001Z,97244.03
2023-04-20T05:13:05.755Z,97246.50
2023-04-20T05:15:32.505Z,97249.09
2023-04-20T05:17:59.147Z,97246.41
2023-04-20T05:20:25.756Z,97242.13
2023-04-20T05:22:52.516Z,97242.97
2023-04-20T05:25:19.027Z,97241.34
2023-04-20T05:27:46.128Z,97249.84
2023-04-20T05:30:19.517Z,97242.13
2023-04-20T05:32:50.147Z,97235.91
2023-04-20T05:35:18.372Z,97241.22
2023-04-20T05:37:44.971Z,97229.06
2023-04-20T05:40:12.785Z,97242.03
2023-04-20T05:42:39.381Z,97236.00
2023-04-20T05:45:06.429Z,97237.72
2023-04-20T05:47:32.971Z,97231.66
2023-04-20T05:49:59.615Z,97238.56
2023-04-20T05:52:26.181Z,97236.84
2023-04-20T05:54:52.932Z,97229.09
2023-04-20T05:57:19.454Z,97232.53
2023-04-20T05:59:46.651Z,97230.78
2023-04-20T06:02:13.312Z,97216.03
2023-04-20T06:04:40.431Z,97226.50
2023-04-20T06:07:07.160Z,97228.97
2023-04-20T06:09:33.661Z,97235.88
2023-04-20T06:12:00.778Z,97227.81
2023-04-20T06:14:27.382Z,97252.06
2023-04-20T06:16:53.935Z,97240.09
2023-04-20T06:19:20.695Z,97243.47
2023-04-20T06:21:47.218Z,97234.81
2023-04-20T06:24:13.710Z,97250.31
2023-04-20T06:26:40.488Z,97234.78
2023-04-20T06:29:07.061Z,97240.94
2023-04-20T06:31:33.591Z,97246.97
2023-04-20T06:34:00.210Z,97239.31
2023-04-20T06:36:27.727Z,97242.69
2023-04-20T06:38:55.048Z,97240.16
2023-04-20T06:41:21.562Z,97235.97
2023-04-20T06:43:48.238Z,97211.78
2023-04-20T06:46:14.819Z,97236.84
2023-04-20T06:48:41.396Z,97236.88
2023-04-20T06:51:08.024Z,97230.91
2023-04-20T06:53:34.982Z,97230.97
2023-04-20T06:56:01.558Z,97214.63
2023-04-20T06:58:28.122Z,97228.41
2023-04-20T07:00:54.689Z,97227.53
2023-04-20T07:03:21.373Z,97224.97
2023-04-20T07:05:48.012Z,97220.75
2023-04-20T07:08:16.059Z,97229.28
2023-04-20T07:10:42.797Z,97208.59
2023-04-20T07:13:09.379Z,97221.59
2023-04-20T07:15:36.036Z,97180.97
2023-04-20T07:18:02.905Z,97219.88
2023-04-20T07:20:29.584Z,97198.34
2023-04-20T07:22:56.078Z,97150.53
2023-04-20T07:25:23.246Z,97227.53
2023-04-20T07:27:49.757Z,97207.75
2023-04-20T07:30:16.318Z,97216.53
2023-04-20T07:32:42.913Z,97192.16
2023-04-20T07:35:10.310Z,97220.75
2023-04-20T07:37:36.994Z,97206.97
2023-04-20T07:40:06.563Z,97214.69
2023-04-20T07:42:34.629Z,97216.47
2023-04-20T07:45:01.259Z,97219.88
2023-04-20T07:47:27.821Z,97208.72
2023-04-20T07:49:54.370Z,97209.66
2023-04-20T07:52:20.892Z,97206.22
2023-04-20T07:54:47.704Z,97204.47
2023-04-20T07:57:14.226Z,97201.88
2023-04-20T07:59:41.252Z,97213.13
2023-04-20T08:02:08.064Z,97212.31
2023-04-20T08:04:36.958Z,97210.63
2023-04-20T08:07:04.048Z,97208.09
2023-04-20T08:09:30.825Z,97219.16
2023-04-20T08:11:57.617Z,97209.81
2023-04-20T08:14:24.194Z,97213.22
2023-04-20T08:16:50.781Z,97220.88
2023-04-20T08:19:17.319Z,97213.19
2023-04-20T08:21:43.842Z,97216.59
2023-04-20T08:24:10.557Z,97206.34
2023-04-20T08:26:37.253Z,97218.38
2023-04-20T08:29:03.943Z,97210.72
2023-04-20T08:31:30.591Z,97209.84
2023-04-20T08:33:57.229Z,97214.16
2023-04-20T08:36:24.156Z,97201.31
2023-04-20T08:38:56.495Z,97215.81
2023-04-20T08:41:23.080Z,97208.16
2023-04-20T08:43:50.622Z,97211.59
2023-04-20T08:46:17.547Z,97207.25
2023-04-20T08:48:45.693Z,97214.19
2023-04-20T08:51:12.287Z,97217.59
2023-04-20T08:53:38.875Z,97219.28
2023-04-20T08:56:05.863Z,97220.16
2023-04-20T08:58:32.551Z,97211.56
2023-04-20T09:01:01.907Z,97215.00
2023-04-20T09:03:39.414Z,97223.56
2023-04-20T09:06:06.610Z,97218.47
2023-04-20T09:08:42.172Z,97220.16
2023-04-20T09:11:26.744Z,97218.47
2023-04-20T09:14:10.242Z,97215.09
2023-04-20T09:16:39.696Z,97210.84
2023-04-20T09:19:08.857Z,97187.66
2023-04-20T09:21:35.893Z,97200.66
2023-04-20T09:24:08.436Z,97208.31
2023-04-20T09:26:35.996Z,97208.34
2023-04-20T09:29:04.542Z,97173.94
2023-04-20T09:31:31.250Z,97201.56
2023-04-20T09:34:02.052Z,97189.59
2023-04-20T09:36:38.652Z,97193.91
2023-04-20T09:39:18.320Z,97204.97
2023-04-20T09:41:44.921Z,97207.50
2023-04-20T09:44:12.041Z,97190.53
2023-04-20T09:46:40.713Z,97182.88
2023-04-20T09:49:08.539Z,97160.69
2023-04-20T09:51:39.175Z,97173.53
2023-04-20T09:54:06.442Z,97157.00
2023-04-20T09:56:33.506Z,97178.63
2023-04-20T09:59:00.488Z,97170.91
2023-04-20T10:01:27.435Z,97157.31
2023-04-20T10:03:54.340Z,97154.78
2023-04-20T10:06:26.120Z,97139.41
2023-04-20T10:08:52.775Z,97137.75
2023-04-20T10:11:27.865Z,97155.59
2023-04-20T10:13:59.563Z,97150.41
2023-04-20T10:16:26.409Z,97148.78
2023-04-20T10:19:03.062Z,97153.84
2023-04-20T10:21:32.709Z,97151.31
2023-04-20T10:24:02.786Z,97146.22
2023-04-20T10:26:37.093Z,97147.09
2023-04-20T10:29:03.617Z,97140.19
2023-04-20T10:31:37.912Z,97135.16
2023-04-20T10:34:04.796Z,97141.91
2023-04-20T10:36:37.259Z,97141.91
2023-04-20T10:39:20.870Z,97132.53
2023-04-20T10:42:01.267Z,97112.06
2023-04-20T10:44:27.979Z,97039.50
2023-04-20T10:46:54.782Z,97109.59
2023-04-20T10:49:26.427Z,97094.13
2023-04-20T10:51:55.811Z,97100.13
2023-04-20T10:54:22.354Z,97103.59
2023-04-20T10:56:52.420Z,97108.72
2023-04-20T10:59:23.456Z,97112.13
2023-04-20T11:01:50.709Z,97102.66
2023-04-20T11:04:19.182Z,97103.53
2023-04-20T11:06:48.064Z,97087.09
2023-04-20T11:09:26.468Z,97096.72
2023-04-20T11:12:04.097Z,97111.25
2023-04-20T11:14:42.954Z,97104.41
2023-04-20T11:17:09.508Z,97105.25
2023-04-20T11:19:36.279Z,97096.75
2023-04-20T11:22:03.742Z,97084.69
2023-04-20T11:24:31.397Z,97084.72
2023-04-20T11:26:58.172Z,97087.41
2023-04-20T11:29:27.758Z,97085.69
2023-04-20T11:31:54.589Z,97082.31
2023-04-20T11:34:21.780Z,97070.34
2023-04-20T11:36:50.608Z,97078.91
2023-04-20T11:39:26.970Z,97078.03
2023-04-20T11:41:53.985Z,97096.75
2023-04-20T11:44:21.285Z,97100.16
2023-04-20T11:46:53.226Z,97092.47
2023-04-20T11:49:21.377Z,97089.03
2023-04-20T11:51:47.951Z,97093.25
2023-04-20T11:54:14.511Z,97087.31
2023-04-20T11:56:44.895Z,97084.63
2023-04-20T11:59:11.990Z,97105.09
2023-04-20T12:01:38.605Z,97082.97
2023-04-20T12:04:05.735Z,97079.66
2023-04-20T12:06:32.455Z,97074.56
2023-04-20T12:08:59.147Z,97046.03
2023-04-20T12:11:25.747Z,97056.66
2023-04-20T12:13:53.589Z,97055.91
2023-04-20T12:16:20.656Z,97054.22
2023-04-20T12:18:47.317Z,97037.97
2023-04-20T12:21:13.887Z,97050.84
2023-04-20T12:23:40.727Z,97036.28
2023-04-20T12:26:07.299Z,97037.16
2023-04-20T12:28:33.831Z,97035.53
2023-04-20T12:31:00.570Z,97039.78
2023-04-20T12:33:27.151Z,97030.47
2023-04-20T12:35:53.717Z,97021.94
2023-04-20T12:38:20.269Z,97025.28
2023-04-20T12:40:46.877Z,97033.00
2023-04-20T12:43:13.362Z,97033.84
2023-04-20T12:45:40.090Z,97031.31
2023-04-20T12:48:06.663Z,97028.66
2023-04-20T12:50:33.233Z,97026.16
2023-04-20T12:52:59.776Z,97019.34
2023-04-20T12:55:26.334Z,97007.97
2023-04-20T12:57:52.972Z,97020.16
2023-04-20T13:00:19.771Z,97019.28
2023-04-20T13:02:46.407Z,97020.09
2023-04-20T13:05:13.062Z,97030.38
2023-04-20T13:07:39.630Z,97036.31
2023-04-20T13:10:06.601Z,97036.31
2023-04-20T13:12:33.144Z,97042.25
2023-04-20T13:14:59.702Z,97033.69
2023-04-20T13:17:26.299Z,97032.09
2023-04-20T13:19:52.832Z,97023.56
2023-04-20T13:22:19.369Z,97024.44
2023-04-20T13:24:46.010Z,97020.22
2023-04-20T13:27:12.678Z,97019.34
2023-04-20T13:29:40.057Z,97016.75
2023-04-20T13:32:06.649Z,97020.22
2023-04-20T13:34:33.252Z,97020.25
2023-04-20T13:36:59.792Z,97009.06
2023-04-20T13:39:27.895Z,96992.72
2023-04-20T13:41:54.412Z,97006.63
2023-04-20T13:44:21.310Z,97010.00
2023-04-20T13:46:48.107Z,97013.41
2023-04-20T13:49:15.529Z,97010.84
2023-04-20T13:51:42.084Z,97009.13
2023-04-20T13:54:08.575Z,97011.69
2023-04-20T13:56:35.194Z,97009.09
2023-04-20T13:59:03.937Z,97008.25
2023-04-20T14:01:31.439Z,97009.97
2023-04-20T14:03:58.177Z,97009.00
2023-04-20T14:06:24.924Z,96958.88
2023-04-20T14:08:51.560Z,96994.41
2023-04-20T14:11:18.081Z,97003.06
2023-04-20T14:13:44.806Z,96988.59
2023-04-20T14:16:12.084Z,96990.28
2023-04-20T14:18:39.167Z,96986.94
2023-04-20T14:21:05.844Z,96980.03
2023-04-20T14:23:32.336Z,96969.72
2023-04-20T14:25:58.954Z,96987.69
2023-04-20T14:28:25.514Z,96974.97
2023-04-20T14:30:52.086Z,96978.41
2023-04-20T14:33:18.695Z,96968.91
2023-04-20T14:35:46.322Z,96980.94
2023-04-20T14:38:12.855Z,96972.38
2023-04-20T14:40:39.526Z,96974.13
2023-04-20T14:43:06.053Z,96974.13
2023-04-20T14:45:32.576Z,96991.13
2023-04-20T14:47:59.127Z,96963.91
2023-04-20T14:50:29.104Z,96960.38
2023-04-20T14:52:55.734Z,96957.91
2023-04-20T14:55:23.412Z,96955.31
2023-04-20T14:57:51.547Z,96952.72
2023-04-20T15:00:18.512Z,96950.25
2023-04-20T15:02:45.085Z,96942.59
2023-04-20T15:05:11.884Z,96940.91
2023-04-20T15:07:38.619Z,96934.94
2023-04-20T15:10:05.636Z,96927.97
2023-04-20T15:12:32.161Z,96937.47
2023-04-20T15:14:58.737Z,96936.63
2023-04-20T15:17:25.243Z,96934.06
2023-04-20T15:19:51.779Z,96930.59
2023-04-20T15:22:18.905Z,96933.22
2023-04-20T15:24:45.415Z,96933.22
2023-04-20T15:27:11.991Z,96929.84
2023-04-20T15:29:38.590Z,96928.16
2023-04-20T15:32:05.575Z,96923.88
2023-04-20T15:34:32.114Z,96932.41
2023-04-20T15:36:58.665Z,96912.66
2023-04-20T15:39:25.235Z,96910.13
2023-04-20T15:41:51.909Z,96923.91
2023-04-20T15:44:18.656Z,96912.81
2023-04-20T15:46:45.468Z,96925.66
2023-04-20T15:49:12.032Z,96916.25
2023-04-20T15:51:38.567Z,96915.44
2023-04-20T15:54:06.865Z,96910.34
2023-04-20T15:56:33.408Z,96916.28
2023-04-20T15:59:00.027Z,96913.72
2023-04-20T16:01:26.609Z,96917.13
2023-04-20T16:03:53.397Z,96920.59
2023-04-20T16:06:20.092Z,96929.94
2023-04-20T16:08:49.492Z,96915.38
2023-04-20T16:11:16.018Z,96913.72
2023-04-20T16:13:42.599Z,96920.63
2023-04-20T16:16:09.153Z,96912.06
2023-04-20T16:18:35.828Z,96925.75
2023-04-20T16:21:02.332Z,96918.94
2023-04-20T16:23:28.991Z,96913.88
2023-04-20T16:25:55.855Z,96912.16
2023-04-20T16:28:22.375Z,96912.16
2023-04-20T16:30:48.908Z,96908.75
2023-04-20T16:33:15.970Z,96902.88
2023-04-20T16:35:42.616Z,96865.56
2023-04-20T16:38:10.796Z,96897.72
2023-04-20T16:40:37.482Z,96883.03
2023-04-20T16:43:04.034Z,96902.91
2023-04-20T16:45:30.707Z,96903.75
2023-04-20T16:47:57.981Z,96915.72
2023-04-20T16:50:24.797Z,96921.63
2023-04-20T16:52:51.333Z,96918.22
2023-04-20T16:55:17.950Z,96900.06
2023-04-20T16:57:44.499Z,96928.47
2023-04-20T17:00:11.690Z,96931.03
2023-04-20T17:02:38.452Z,96930.16
2023-04-20T17:05:05.831Z,96923.38
2023-04-20T17:07:32.598Z,96920.81
2023-04-20T17:09:59.607Z,96922.53
2023-04-20T17:12:26.350Z,96928.47
2023-04-20T17:14:52.843Z,96929.31
2023-04-20T17:17:19.349Z,96934.41
2023-04-20T17:19:45.973Z,96935.25
2023-04-20T17:22:12.507Z,96934.41
2023-04-20T17:24:39.039Z,96942.94
2023-04-20T17:27:05.597Z,96949.75
2023-04-20T17:29:35.998Z,96906.47
2023-04-20T17:32:02.635Z,96950.63
2023-04-20T17:34:29.363Z,96930.88
2023-04-20T17:36:55.949Z,96948.97
2023-04-20T17:39:23.729Z,96947.25
2023-04-20T17:41:50.234Z,96887.63
2023-04-20T17:44:16.876Z,96940.34
2023-04-20T17:46:43.651Z,96958.31
2023-04-20T17:49:10.403Z,96953.22
2023-04-20T17:51:36.941Z,96949.84
2023-04-20T17:54:03.727Z,96945.53
2023-04-20T17:56:30.420Z,96945.53
2023-04-20T17:58:56.968Z,96955.84
2023-04-20T18:01:23.633Z,96954.97
2023-04-20T18:03:50.844Z,96960.13
2023-04-20T18:06:17.498Z,96961.88
2023-04-20T18:08:44.094Z,96968.69
2023-04-20T18:11:10.646Z,96958.25
2023-04-20T18:13:37.192Z,96976.31
2023-04-20T18:16:07.278Z,96974.66
2023-04-20T18:18:37.053Z,96971.16
2023-04-20T18:21:04.388Z,96979.81
2023-04-20T18:23:32.049Z,96975.53
2023-04-20T18:25:58.631Z,96972.00
2023-04-20T18:28:25.183Z,96984.91
2023-04-20T18:30:51.721Z,96980.66
2023-04-20T18:33:18.255Z,96979.81
2023-04-20T18:35:45.143Z,96988.22
2023-04-20T18:38:11.662Z,96994.22
2023-04-20T18:40:38.287Z,97002.81
2023-04-20T18:43:04.856Z,96996.84
2023-04-20T18:45:31.489Z,96997.69
2023-04-20T18:48:00.896Z,97012.16
2023-04-20T18:50:27.406Z,97006.91
2023-04-20T18:52:53.941Z,97021.53
2023-04-20T18:55:20.664Z,97022.38
2023-04-20T18:57:47.236Z,97036.00
2023-04-20T19:00:14.194Z,97049.59
2023-04-20T19:02:40.819Z,97049.59
2023-04-20T19:05:08.033Z,97049.59
2023-04-20T19:07:34.638Z,97041.84
2023-04-20T19:10:01.117Z,97038.56
2023-04-20T19:12:28.226Z,97044.50
2023-04-20T19:14:54.748Z,97037.72
2023-04-20T19:17:21.288Z,97039.47
2023-04-20T19:19:50.963Z,97039.44
2023-04-20T19:22:17.472Z,97030.66
2023-04-20T19:24:44.036Z,97054.78
2023-04-20T19:27:10.540Z,97058.22
2023-04-20T19:29:37.089Z,97049.66
2023-04-20T19:32:03.699Z,97045.41
2023-04-20T19:34:30.285Z,97040.31
2023-04-20T19:36:56.837Z,97027.38
2023-04-20T19:39:23.355Z,97030.09
2023-04-20T19:41:49.986Z,97012.94
2023-04-20T19:44:16.841Z,97002.75
2023-04-20T19:46:43.642Z,97010.44
2023-04-20T19:49:10.326Z,97015.59
2023-04-20T19:51:36.846Z,97020.59
2023-04-20T19:54:04.770Z,97020.66
2023-04-20T19:56:31.849Z,97039.41
2023-04-20T19:58:58.398Z,97037.69
2023-04-20T20:01:25.018Z,97046.91
2023-04-20T20:03:51.704Z,97034.97
2023-04-20T20:06:18.505Z,97045.28
2023-04-20T20:08:45.199Z,97053.81
2023-04-20T20:11:11.754Z,97061.53
2023-04-20T20:13:38.254Z,97053.81
2023-04-20T20:16:05.297Z,97054.66
2023-04-20T20:18:31.845Z,97035.59
2023-04-20T20:20:58.382Z,97067.44
2023-04-20T20:23:24.929Z,97063.88
2023-04-20T20:25:51.540Z,97078.53
2023-04-20T20:28:18.071Z,97075.09
2023-04-20T20:30:45.377Z,97077.69
2023-04-20T20:33:12.357Z,97081.94
2023-04-20T20:35:39.073Z,97092.16
2023-04-20T20:38:08.955Z,97092.13
2023-04-20T20:40:35.608Z,97092.97
2023-04-20T20:43:02.380Z,97091.28
2023-04-20T20:45:29.038Z,97092.13
2023-04-20T20:47:55.653Z,97088.59
2023-04-20T20:50:22.967Z,97107.47
2023-04-20T20:52:49.826Z,97110.03
2023-04-20T20:55:16.355Z,97108.31
2023-04-20T20:57:42.924Z,97096.38
2023-04-20T21:00:10.445Z,97081.78
2023-04-20T21:02:37.274Z,97095.50
2023-04-20T21:05:04.449Z,97085.19
2023-04-20T21:07:31.045Z,97109.09
2023-04-20T21:09:57.552Z,97094.72
2023-04-20T21:12:24.085Z,97089.47
2023-04-20T21:14:52.232Z,97085.06
2023-04-20T21:17:19.474Z,97094.66
2023-04-20T21:19:46.080Z,97102.31
2023-04-20T21:22:12.604Z,97101.31
2023-04-20T21:24:39.218Z,97106.50
2023-04-20T21:27:05.868Z,97103.97
2023-04-20T21:29:32.358Z,97102.16
2023-04-20T21:31:58.962Z,97100.50
2023-04-20T21:34:25.582Z,97105.59
2023-04-20T21:36:52.100Z,97108.16
2023-04-20T21:39:18.866Z,97109.84
2023-04-20T21:41:45.606Z,97110.66
2023-04-20T21:44:12.214Z,97109.81
2023-04-20T21:46:39.230Z,97108.94
2023-04-20T21:49:05.785Z,97091.78
2023-04-20T21:51:33.039Z,97105.50
2023-04-20T21:53:59.622Z,97097.84
2023-04-20T21:56:26.238Z,97090.19
2023-04-20T21:58:52.797Z,97089.41
2023-04-20T22:01:19.330Z,97093.63
2023-04-20T22:03:47.490Z,97072.97
2023-04-20T22:06:14.295Z,97093.63
2023-04-20T22:08:40.817Z,97088.47
2023-04-20T22:11:07.678Z,97074.81
2023-04-20T22:13:34.735Z,97080.88
2023-04-20T22:16:01.379Z,97081.75
2023-04-20T22:18:27.926Z,97087.66
2023-04-20T22:20:54.460Z,97088.53
2023-04-20T22:23:21.012Z,97070.50
2023-04-20T22:25:47.871Z,97066.22
2023-04-20T22:28:14.494Z,97087.66
2023-04-20T22:30:42.356Z,97000.50
2023-04-20T22:33:09.109Z,97079.22
2023-04-20T22:35:35.701Z,97083.47
2023-04-20T22:38:02.251Z,97075.63
2023-04-20T22:40:28.838Z,97083.41
2023-04-20T22:42:55.358Z,97088.53
2023-04-20T22:45:22.159Z,97082.59
2023-04-20T22:47:48.800Z,97073.16
2023-04-20T22:50:15.428Z,97084.28
2023-04-20T22:52:42.243Z,97077.41
2023-04-20T22:55:09.430Z,97096.19
2023-04-20T22:57:36.025Z,97097.00
2023-04-20T23:00:06.421Z,97114.91
2023-04-20T23:02:33.032Z,97087.53
2023-04-20T23:04:59.703Z,97088.41
2023-04-20T23:07:27.551Z,97085.06
2023-04-20T23:09:56.377Z,97078.22
2023-04-20T23:12:22.868Z,97071.41
2023-04-20T23:14:50.865Z,97073.97
2023-04-20T23:17:17.662Z,97090.06
2023-04-20T23:19:44.223Z,97109.69
2023-04-20T23:22:10.953Z,97105.38
2023-04-20T23:24:37.533Z,97088.34
2023-04-20T23:27:04.191Z,97089.22
2023-04-20T23:29:30.766Z,97086.69
2023-04-20T23:31:57.313Z,97082.41
2023-04-20T23:34:23.882Z,97070.50
2023-04-20T23:36:50.818Z,97083.28
2023-04-20T23:39:17.795Z,97074.75
2023-04-20T23:41:45.036Z,97084.13
2023-04-20T23:44:11.631Z,97068.66
2023-04-20T23:46:38.865Z,97073.09
2023-04-20T23:49:05.469Z,97068.88
2023-04-20T23:51:32.211Z,97062.88
2023-04-20T23:53:58.893Z,97060.31
2023-04-20T23:56:25.470Z,97059.50
2023-04-20T23:58:52.056Z,97058.63
